Nearby METAR Reports

 

KCPC - Whiteville, North Carolina, USA
Distance from station: NNE 17mi, 28km
Updated: 09/20/2017 10:40pm
Clear
Clear
 Wind from calm
Wind: Calm
Temperature: 73°F , 23°C
Dew Point: 66°F , 19°C
Humidity: 78%
Barometer: 30.01 inHg , 1016.3 hPa
Clouds: Clear
Visibility: 10 miles , 16 km
2017/09/21 02:40 KCPC 210240Z AUTO 00000KT 10SM CLR 23/19 A3001 RMK AO2 T02340187
KCRE - North Myrtle Bea, South Carolina, USA
Distance from station: SSE 19mi, 31km
Updated: 09/20/2017 10:53pm
Clear
Clear
 Wind from SW
Wind: SW 9 mph , 15 km/h
Temperature: 79°F , 26°C
Dew Point: 75°F , 24°C
Humidity: 89%
Barometer: 30.01 inHg , 1016.3 hPa
Clouds: Clear
Visibility: 10 miles , 16 km
2017/09/21 02:53 KCRE 210253Z AUTO 22008KT 10SM CLR 26/24 A3001 RMK AO1 SLP163 T02610239 52011
 
KHYW - Conway-Horry Cty, South Carolina, USA
Distance from station: SW 22mi, 35km
Updated: 09/20/2017 10:55pm
Clear
Clear
 Wind from calm
Wind: Calm
Temperature: 73°F , 23°C
Dew Point: 72°F , 22°C
Humidity: 94%
Barometer: 30.02 inHg , 1016.6 hPa
Clouds: Clear
Visibility: 7 miles , 11 km
2017/09/21 02:55 KHYW 210255Z AUTO 00000KT 7SM CLR 23/22 A3002 RMK AO2
KMAO - Marion, South Carolina, USA
Distance from station: WNW 28mi, 45km
Updated: 09/20/2017 11:15pm
Partly cloudy
Partly cloudy
 Wind from calm
Wind: Calm
Temperature: 73°F , 23°C
Dew Point: 70°F , 21°C
Humidity: 89%
Barometer: 30.02 inHg , 1016.6 hPa
Clouds: Partly cloudy
Visibility: 7 miles , 11 km
Cloud details: Partly cloudy 9000 ft
2017/09/21 03:15 KMAO 210315Z AUTO 00000KT 7SM SCT090 23/21 A3002 RMK AO2
 
KMYR - Myrtle Beach, South Carolina, USA
Distance from station: S 28mi, 45km
Updated: 09/20/2017 10:56pm
Clear
Clear
 Wind from SSW
Wind: SSW 6 mph , 9 km/h
Temperature: 79°F , 26°C
Dew Point: 73°F , 23°C
Humidity: 84%
Barometer: 30.03 inHg , 1016.9 hPa
Clouds: Clear
Visibility: 10 miles , 16 km
2017/09/21 02:56 KMYR 210256Z AUTO 21005KT 10SM CLR 26/23 A3003 RMK AO2 SLP167 T02560233 51012
KLBT - Lumberton, North Carolina, USA
Distance from station: NNW 39mi, 62km
Updated: 09/20/2017 10:59pm
Light thunderstorm, Rain, Overcast
Light thunderstorm, Rain, Overcast
 Wind from E
Wind: E 6 mph , 9 km/h
Temperature: 73°F , 23°C
Dew Point: 68°F , 20°C
Humidity: 83%
Barometer: 30.02 inHg , 1016.6 hPa
Summary: Light thunderstorm, Rain
Clouds: Overcast
Visibility: 10 miles , 16 km
Cloud details: Mostly cloudy 6000 ft
Overcast 8000 ft
2017/09/21 02:59 KLBT 210259Z AUTO 09005KT 10SM -TSRA BKN060 OVC080 23/20 A3002 RMK AO2 LTG DSNT W TSB59 P0000 T02280200
 
KSUT - Southport, North Carolina, USA
Distance from station: E 46mi, 74km
Updated: 09/20/2017 10:50pm
Partly cloudy
Partly cloudy
 Wind from NW
Wind: NW 5 mph , 7 km/h
Temperature: 77°F , 25°C
Dew Point: 75°F , 24°C
Humidity: 94%
Barometer: 30.02 inHg , 1016.6 hPa
Clouds: Partly cloudy
Visibility: 10 miles , 16 km
Cloud details: Partly cloudy 1100 ft
2017/09/21 02:50 KSUT 210250Z AUTO 32004KT 10SM SCT011 25/24 A3002 RMK AO2 T02500237
KFLO - Florence, South Carolina, USA
Distance from station: W 50mi, 81km
Updated: 09/20/2017 10:53pm
Clear
Clear
 Wind from calm
Wind: Calm
Temperature: 72°F , 22°C
Dew Point: 70°F , 21°C
Humidity: 94%
Barometer: 30.01 inHg , 1016.3 hPa
Clouds: Clear
Visibility: 8 miles , 13 km
2017/09/21 02:53 KFLO 210253Z 00000KT 8SM CLR 22/21 A3001 RMK AO2 LTG DSNT NE SLP159 T02220206 51012